createdAt,value
2023-01-17T00:02:24.313Z,96081.15
2023-01-17T00:05:11.398Z,96083.79
2023-01-17T00:07:58.212Z,96082.60
2023-01-17T00:10:27.421Z,96085.16
2023-01-17T00:13:02.651Z,96076.34
2023-01-17T00:15:31.638Z,96068.80
2023-01-17T00:17:59.582Z,96065.47
2023-01-17T00:20:47.668Z,96063.86
2023-01-17T00:23:36.202Z,96055.17
2023-01-17T00:26:06.764Z,96052.46
2023-01-17T00:28:36.002Z,96046.30
2023-01-17T00:31:05.431Z,96047.83
2023-01-17T00:33:33.563Z,96048.36
2023-01-17T00:36:02.691Z,96053.71
2023-01-17T00:38:32.419Z,96059.36
2023-01-17T00:41:10.886Z,96062.14
2023-01-17T00:43:58.132Z,96057.99
2023-01-17T00:46:44.682Z,96051.19
2023-01-17T00:49:31.436Z,96038.25
2023-01-17T00:52:17.954Z,96029.93
2023-01-17T00:55:04.617Z,96030.80
2023-01-17T00:57:51.737Z,96026.30
2023-01-17T01:00:38.858Z,96017.98
2023-01-17T01:03:28.734Z,96024.08
2023-01-17T01:06:15.893Z,96023.73
2023-01-17T01:09:02.918Z,96024.77
2023-01-17T01:11:49.717Z,96017.41
2023-01-17T01:14:36.518Z,96012.65
2023-01-17T01:17:23.528Z,96014.63
2023-01-17T01:20:10.313Z,96009.77
2023-01-17T01:22:56.844Z,96009.48
2023-01-17T01:25:43.348Z,96013.15
2023-01-17T01:28:31.086Z,96011.42
2023-01-17T01:31:18.613Z,96005.09
2023-01-17T01:33:46.623Z,95995.13
2023-01-17T01:36:14.751Z,95993.15
2023-01-17T01:38:42.978Z,95987.31
2023-01-17T01:41:10.920Z,95985.27
2023-01-17T01:43:57.067Z,95982.73
2023-01-17T01:46:39.734Z,95989.93
2023-01-17T01:49:22.103Z,95993.33
2023-01-17T01:51:59.126Z,95993.61
2023-01-17T01:54:31.471Z,95996.23
2023-01-17T01:57:01.672Z,95991.62
2023-01-17T01:59:31.097Z,95988.50
2023-01-17T02:01:59.064Z,95986.36
2023-01-17T02:04:27.661Z,95995.73
2023-01-17T02:07:21.836Z,95999.66
2023-01-17T02:09:50.329Z,96005.15
2023-01-17T02:12:20.204Z,96012.13
2023-01-17T02:14:48.168Z,96011.64
2023-01-17T02:17:35.177Z,96006.55
2023-01-17T02:20:28.683Z,96004.33
2023-01-17T02:23:15.393Z,96007.75
2023-01-17T02:25:54.817Z,96001.41
2023-01-17T02:28:32.210Z,95994.41
2023-01-17T02:31:23.318Z,95989.70
2023-01-17T02:33:55.669Z,95993.54
2023-01-17T02:36:32.648Z,95994.14
2023-01-17T02:39:05.512Z,95990.39
2023-01-17T02:41:39.128Z,95983.42
2023-01-17T02:44:11.286Z,95976.70
2023-01-17T02:46:44.633Z,95980.47
2023-01-17T02:49:13.166Z,95983.02
2023-01-17T02:51:59.911Z,95983.83
2023-01-17T02:54:43.288Z,95978.89
2023-01-17T02:57:20.485Z,95969.66
2023-01-17T02:59:51.421Z,95969.41
2023-01-17T03:02:38.312Z,95965.80
2023-01-17T03:05:12.515Z,95963.91
2023-01-17T03:07:43.001Z,95965.95
2023-01-17T03:10:11.863Z,95964.78
2023-01-17T03:12:40.655Z,95958.27
2023-01-17T03:15:10.149Z,95956.86
2023-01-17T03:17:39.358Z,95956.74
2023-01-17T03:20:07.645Z,95955.30
2023-01-17T03:22:35.570Z,95955.14
2023-01-17T03:25:03.588Z,95959.29
2023-01-17T03:27:31.733Z,95953.39
2023-01-17T03:30:00.015Z,95958.27
2023-01-17T03:32:28.516Z,95963.77
2023-01-17T03:34:56.805Z,95954.16
2023-01-17T03:37:25.150Z,95946.31
2023-01-17T03:39:53.228Z,95944.03
2023-01-17T03:42:21.397Z,95944.05
2023-01-17T03:44:49.360Z,95947.55
2023-01-17T03:47:17.339Z,95937.54
2023-01-17T03:49:45.275Z,95930.52
2023-01-17T03:52:13.469Z,95929.96
2023-01-17T03:54:41.421Z,95925.34
2023-01-17T03:57:10.666Z,95920.11
2023-01-17T03:59:38.607Z,95920.90
2023-01-17T04:02:06.699Z,95920.42
2023-01-17T04:04:34.741Z,95920.90
2023-01-17T04:07:02.725Z,95924.59
2023-01-17T04:09:34.253Z,95928.88
2023-01-17T04:12:02.829Z,95929.05
2023-01-17T04:14:31.016Z,95927.39
2023-01-17T04:17:00.119Z,95925.81
2023-01-17T04:19:28.204Z,95920.88
2023-01-17T04:21:56.258Z,95923.13
2023-01-17T04:24:24.734Z,95911.63
2023-01-17T04:26:52.666Z,95914.15
2023-01-17T04:29:20.802Z,95918.98
2023-01-17T04:31:48.901Z,95927.21
2023-01-17T04:34:17.621Z,95928.74
2023-01-17T04:36:45.522Z,95925.79
2023-01-17T04:39:13.453Z,95925.39
2023-01-17T04:41:41.536Z,95927.63
2023-01-17T04:44:09.692Z,95926.83
2023-01-17T04:46:37.668Z,95927.21
2023-01-17T04:49:05.739Z,95929.81
2023-01-17T04:51:34.078Z,95935.64
2023-01-17T04:54:01.971Z,95941.20
2023-01-17T04:56:29.962Z,95947.56
2023-01-17T04:58:58.532Z,95947.29
2023-01-17T05:01:27.129Z,95942.49
2023-01-17T05:03:55.186Z,95941.02
2023-01-17T05:06:23.253Z,95940.14
2023-01-17T05:08:51.338Z,95939.50
2023-01-17T05:11:20.538Z,95935.55
2023-01-17T05:13:49.318Z,95935.75
2023-01-17T05:16:18.385Z,95938.98
2023-01-17T05:18:46.893Z,95937.92
2023-01-17T05:21:14.955Z,95933.30
2023-01-17T05:23:43.338Z,95923.14
2023-01-17T05:26:11.516Z,95923.57
2023-01-17T05:28:39.720Z,95923.31
2023-01-17T05:31:07.908Z,95923.92
2023-01-17T05:33:35.931Z,95926.08
2023-01-17T05:36:04.191Z,95927.17
2023-01-17T05:38:32.317Z,95923.90
2023-01-17T05:41:01.196Z,95921.05
2023-01-17T05:43:29.237Z,95932.44
2023-01-17T05:45:57.257Z,95927.10
2023-01-17T05:48:25.378Z,95915.45
2023-01-17T05:50:53.343Z,95910.59
2023-01-17T05:53:21.536Z,95914.15
2023-01-17T05:55:49.904Z,95906.42
2023-01-17T05:58:19.299Z,95903.83
2023-01-17T06:00:47.801Z,95912.84
2023-01-17T06:03:16.359Z,95919.25
2023-01-17T06:05:45.163Z,95921.36
2023-01-17T06:08:13.721Z,95931.90
2023-01-17T06:10:41.673Z,95938.05
2023-01-17T06:13:14.447Z,95937.55
2023-01-17T06:15:43.468Z,95935.60
2023-01-17T06:18:13.203Z,95942.36
2023-01-17T06:20:41.547Z,95937.89
2023-01-17T06:23:13.848Z,95943.65
2023-01-17T06:25:45.737Z,95943.22
2023-01-17T06:28:14.945Z,95937.49
2023-01-17T06:30:44.011Z,95938.27
2023-01-17T06:33:12.914Z,95941.14
2023-01-17T06:35:47.376Z,95955.80
2023-01-17T06:38:15.673Z,95960.46
2023-01-17T06:40:43.823Z,95963.15
2023-01-17T06:43:11.903Z,95960.70
2023-01-17T06:45:40.175Z,95969.58
2023-01-17T06:48:08.255Z,95966.77
2023-01-17T06:50:36.439Z,95978.00
2023-01-17T06:53:05.722Z,95983.02
2023-01-17T06:55:34.305Z,95984.77
2023-01-17T06:58:03.088Z,95991.52
2023-01-17T07:00:35.170Z,96003.02
2023-01-17T07:03:03.427Z,96015.16
2023-01-17T07:05:31.386Z,96019.77
2023-01-17T07:07:59.776Z,96021.20
2023-01-17T07:10:28.042Z,96025.45
2023-01-17T07:12:58.779Z,96026.21
2023-01-17T07:15:26.659Z,96027.88
2023-01-17T07:17:54.650Z,96028.17
2023-01-17T07:20:22.614Z,96027.13
2023-01-17T07:22:50.651Z,96026.73
2023-01-17T07:25:20.260Z,96023.50
2023-01-17T07:27:48.732Z,96023.91
2023-01-17T07:30:17.016Z,96019.00
2023-01-17T07:32:44.914Z,96005.80
2023-01-17T07:35:12.946Z,95998.33
2023-01-17T07:37:46.820Z,95984.64
2023-01-17T07:40:15.534Z,95985.98
2023-01-17T07:42:44.434Z,96008.91
2023-01-17T07:45:13.556Z,96015.80
2023-01-17T07:47:41.727Z,96011.44
2023-01-17T07:50:10.277Z,96004.16
2023-01-17T07:52:38.195Z,95995.68
2023-01-17T07:55:09.016Z,95997.45
2023-01-17T07:57:37.252Z,96003.95
2023-01-17T08:00:05.907Z,96002.59
2023-01-17T08:02:40.277Z,95998.64
2023-01-17T08:05:08.847Z,96006.38
2023-01-17T08:07:36.805Z,95994.95
2023-01-17T08:10:06.828Z,96001.45
2023-01-17T08:12:36.159Z,96012.05
2023-01-17T08:15:04.707Z,96012.54
2023-01-17T08:17:32.651Z,96019.85
2023-01-17T08:20:00.556Z,96026.80
2023-01-17T08:22:30.467Z,96021.80
2023-01-17T08:24:58.416Z,96022.77
2023-01-17T08:27:28.462Z,96021.77
2023-01-17T08:29:56.607Z,96007.96
2023-01-17T08:32:24.524Z,96005.63
2023-01-17T08:34:52.648Z,96006.98
2023-01-17T08:37:20.639Z,96011.13
2023-01-17T08:39:48.858Z,96004.13
2023-01-17T08:42:17.428Z,96004.11
2023-01-17T08:44:45.373Z,96005.40
2023-01-17T08:47:13.375Z,96021.36
2023-01-17T08:49:41.724Z,96029.44
2023-01-17T08:52:09.747Z,96028.66
2023-01-17T08:54:37.719Z,96023.42
2023-01-17T08:57:05.971Z,96021.13
2023-01-17T08:59:33.963Z,96021.88
2023-01-17T09:02:06.935Z,96030.58
2023-01-17T09:04:35.110Z,96032.39
2023-01-17T09:07:07.545Z,96041.27
2023-01-17T09:09:35.651Z,96037.95
2023-01-17T09:12:03.769Z,96031.83
2023-01-17T09:14:32.321Z,96013.53
2023-01-17T09:17:00.896Z,96012.27
2023-01-17T09:19:29.283Z,96013.41
2023-01-17T09:21:58.308Z,96017.70
2023-01-17T09:24:26.231Z,96025.58
2023-01-17T09:26:54.315Z,96026.23
2023-01-17T09:29:22.393Z,96031.56
2023-01-17T09:31:50.483Z,96038.60
2023-01-17T09:34:18.831Z,96044.43
2023-01-17T09:36:47.039Z,96051.48
2023-01-17T09:39:15.480Z,96058.16
2023-01-17T09:41:47.173Z,96063.44
2023-01-17T09:44:23.453Z,96059.62
2023-01-17T09:46:53.027Z,96056.63
2023-01-17T09:49:24.259Z,96061.31
2023-01-17T09:51:53.600Z,96069.88
2023-01-17T09:54:27.560Z,96077.48
2023-01-17T09:57:01.818Z,96068.95
2023-01-17T09:59:36.027Z,96069.73
2023-01-17T10:02:24.390Z,96063.67
2023-01-17T10:05:06.499Z,96044.86
2023-01-17T10:07:46.894Z,96037.82
2023-01-17T10:10:33.678Z,96044.85
2023-01-17T10:13:20.620Z,96053.69
2023-01-17T10:15:55.164Z,96061.20
2023-01-17T10:18:37.657Z,96053.38
2023-01-17T10:21:19.450Z,96046.46
2023-01-17T10:24:09.015Z,96043.23
2023-01-17T10:26:38.554Z,96042.24
2023-01-17T10:29:12.748Z,96046.39
2023-01-17T10:31:43.654Z,96051.98
2023-01-17T10:34:14.934Z,96051.45
2023-01-17T10:36:49.668Z,96052.05
2023-01-17T10:39:20.525Z,96050.20
2023-01-17T10:42:08.810Z,96046.39
2023-01-17T10:44:42.802Z,96047.56
2023-01-17T10:47:10.838Z,96048.98
2023-01-17T10:49:40.459Z,96052.13
2023-01-17T10:52:13.852Z,96036.83
2023-01-17T10:54:44.538Z,96025.55
2023-01-17T10:57:14.668Z,96015.56
2023-01-17T10:59:44.195Z,96017.14
2023-01-17T11:02:43.107Z,96016.61
2023-01-17T11:05:25.566Z,96009.67
2023-01-17T11:08:00.917Z,96006.84
2023-01-17T11:10:42.492Z,96008.02
2023-01-17T11:13:19.300Z,96005.13
2023-01-17T11:15:49.711Z,95998.30
2023-01-17T11:18:22.111Z,96001.98
2023-01-17T11:20:50.172Z,96007.14
2023-01-17T11:23:23.011Z,96006.75
2023-01-17T11:25:58.737Z,95999.68
2023-01-17T11:28:30.739Z,95996.26
2023-01-17T11:31:07.721Z,95995.89
2023-01-17T11:33:45.763Z,96003.44
2023-01-17T11:36:18.601Z,96006.31
2023-01-17T11:38:58.533Z,96014.69
2023-01-17T11:41:28.327Z,96017.29
2023-01-17T11:44:00.381Z,96015.68
2023-01-17T11:46:29.714Z,96018.26
2023-01-17T11:48:59.779Z,96018.63
2023-01-17T11:51:33.034Z,96017.70
2023-01-17T11:54:24.050Z,96014.29
2023-01-17T11:56:57.756Z,96019.33
2023-01-17T11:59:25.784Z,96027.40
2023-01-17T12:02:05.987Z,96032.23
2023-01-17T12:04:45.016Z,96039.95
2023-01-17T12:07:22.249Z,96033.14
2023-01-17T12:10:02.620Z,96022.08
2023-01-17T12:12:52.251Z,96012.59
2023-01-17T12:15:36.573Z,96004.41
2023-01-17T12:18:24.738Z,95999.95
2023-01-17T12:21:12.559Z,95999.11
2023-01-17T12:23:43.643Z,96002.30
2023-01-17T12:26:12.180Z,96009.05
2023-01-17T12:28:59.697Z,96010.23
2023-01-17T12:31:27.823Z,96002.09
2023-01-17T12:33:55.948Z,95997.00
2023-01-17T12:36:27.192Z,95996.59
2023-01-17T12:38:56.727Z,95993.85
2023-01-17T12:41:31.788Z,95986.45
2023-01-17T12:44:00.880Z,95986.66
2023-01-17T12:46:44.189Z,95990.92
2023-01-17T12:49:30.974Z,95995.05
2023-01-17T12:52:22.380Z,95997.70
2023-01-17T12:54:59.271Z,95999.90
2023-01-17T12:57:32.386Z,96002.20
2023-01-17T13:00:10.354Z,96003.53
2023-01-17T13:02:59.320Z,96004.20
2023-01-17T13:05:38.284Z,96003.14
2023-01-17T13:08:25.503Z,96008.33
2023-01-17T13:10:56.398Z,96008.11
2023-01-17T13:13:26.033Z,96010.20
2023-01-17T13:16:00.282Z,96019.48
2023-01-17T13:18:30.000Z,96032.36
2023-01-17T13:21:13.405Z,96047.75
2023-01-17T13:23:45.124Z,96053.70
2023-01-17T13:26:33.561Z,96057.42
2023-01-17T13:29:07.200Z,96063.77
2023-01-17T13:31:53.795Z,96064.89
2023-01-17T13:34:24.832Z,96066.86
2023-01-17T13:37:02.606Z,96063.48
2023-01-17T13:39:41.222Z,96063.90
2023-01-17T13:42:18.003Z,96064.17
2023-01-17T13:44:46.487Z,96062.55
2023-01-17T13:47:18.561Z,96059.45
2023-01-17T13:49:49.444Z,96055.44
2023-01-17T13:52:20.305Z,96039.77
2023-01-17T13:54:58.587Z,96030.14
2023-01-17T13:57:29.374Z,96025.27
2023-01-17T13:59:58.686Z,96024.52
2023-01-17T14:02:32.669Z,96027.09
2023-01-17T14:05:16.137Z,96029.48
2023-01-17T14:07:47.847Z,96034.78
2023-01-17T14:10:24.433Z,96041.34
2023-01-17T14:12:52.449Z,96039.92
2023-01-17T14:15:22.068Z,96045.51
2023-01-17T14:17:51.890Z,96053.91
2023-01-17T14:20:26.142Z,96056.30
2023-01-17T14:22:56.006Z,96065.96
2023-01-17T14:25:38.249Z,96077.14
2023-01-17T14:28:19.337Z,96079.16
2023-01-17T14:30:48.956Z,96081.16
2023-01-17T14:33:19.678Z,96089.73
2023-01-17T14:35:58.090Z,96095.65
2023-01-17T14:38:34.547Z,96099.28
2023-01-17T14:41:04.638Z,96101.30
2023-01-17T14:43:34.936Z,96100.30
2023-01-17T14:46:04.535Z,96105.36
2023-01-17T14:48:32.670Z,96096.70
2023-01-17T14:51:01.282Z,96101.11
2023-01-17T14:53:33.326Z,96105.44
2023-01-17T14:56:02.893Z,96105.66
2023-01-17T14:58:34.738Z,96102.21
2023-01-17T15:01:09.655Z,96105.45
2023-01-17T15:03:46.775Z,96111.41
2023-01-17T15:06:25.926Z,96112.39
2023-01-17T15:08:54.197Z,96109.14
2023-01-17T15:11:26.614Z,96109.02
2023-01-17T15:13:57.565Z,96107.19
2023-01-17T15:16:44.361Z,96102.02
2023-01-17T15:19:14.155Z,96097.28
2023-01-17T15:21:43.536Z,96099.25
2023-01-17T15:24:20.669Z,96096.48
2023-01-17T15:26:49.277Z,96104.50
2023-01-17T15:29:24.099Z,96109.96
2023-01-17T15:31:59.263Z,96105.20
2023-01-17T15:34:30.359Z,96102.22
2023-01-17T15:36:59.690Z,96104.83
2023-01-17T15:39:33.775Z,96112.63
2023-01-17T15:42:03.585Z,96120.16
2023-01-17T15:44:47.120Z,96119.13
2023-01-17T15:47:33.149Z,96103.40
2023-01-17T15:50:02.753Z,96097.52
2023-01-17T15:52:31.065Z,96103.84
2023-01-17T15:55:00.029Z,96098.32
2023-01-17T15:57:38.241Z,96078.60
2023-01-17T16:00:07.843Z,96075.98
2023-01-17T16:02:44.430Z,96084.23
2023-01-17T16:05:22.582Z,96104.66
2023-01-17T16:07:52.393Z,96116.95
2023-01-17T16:10:25.201Z,96126.89
2023-01-17T16:12:54.201Z,96116.79
2023-01-17T16:15:25.647Z,96112.52
2023-01-17T16:17:56.464Z,96121.17
2023-01-17T16:20:28.353Z,96122.32
2023-01-17T16:22:56.625Z,96101.25
2023-01-17T16:25:25.005Z,96089.22
2023-01-17T16:27:54.174Z,96088.42
2023-01-17T16:30:22.631Z,96096.61
2023-01-17T16:32:51.356Z,96105.55
2023-01-17T16:35:21.035Z,96113.20
2023-01-17T16:37:53.320Z,96109.21
2023-01-17T16:40:22.643Z,96103.84
2023-01-17T16:42:51.172Z,96092.83
2023-01-17T16:45:19.393Z,96085.38
2023-01-17T16:47:48.117Z,96079.91
2023-01-17T16:50:17.734Z,96080.66
2023-01-17T16:52:45.619Z,96087.84
2023-01-17T16:55:14.945Z,96081.44
2023-01-17T16:57:43.163Z,96075.14
2023-01-17T17:00:12.444Z,96071.41
2023-01-17T17:02:40.853Z,96070.99
2023-01-17T17:05:09.643Z,96072.09
2023-01-17T17:07:43.017Z,96064.90
2023-01-17T17:10:12.441Z,96056.34
2023-01-17T17:12:41.223Z,96048.96
2023-01-17T17:15:10.526Z,96047.77
2023-01-17T17:17:39.738Z,96042.14
2023-01-17T17:20:11.731Z,96035.70
2023-01-17T17:22:44.192Z,96022.86
2023-01-17T17:25:12.831Z,96013.26
2023-01-17T17:27:41.264Z,96022.43
2023-01-17T17:30:10.468Z,96032.42
2023-01-17T17:32:38.532Z,96031.44
2023-01-17T17:35:07.059Z,96031.04
2023-01-17T17:37:34.994Z,96030.59
2023-01-17T17:40:04.384Z,96023.58
2023-01-17T17:42:32.533Z,96022.80
2023-01-17T17:45:00.564Z,96019.70
2023-01-17T17:47:30.581Z,96021.25
2023-01-17T17:49:58.825Z,96020.69
2023-01-17T17:52:28.217Z,96009.64
2023-01-17T17:54:57.521Z,96001.46
2023-01-17T17:57:25.824Z,95993.77
2023-01-17T17:59:56.854Z,95988.59
2023-01-17T18:02:24.743Z,95991.90
2023-01-17T18:04:52.906Z,95985.02
2023-01-17T18:07:21.246Z,95988.41
2023-01-17T18:09:49.318Z,96000.80
2023-01-17T18:12:17.405Z,96002.01
2023-01-17T18:14:45.399Z,96002.63
2023-01-17T18:17:15.374Z,95998.05
2023-01-17T18:19:46.141Z,95990.98
2023-01-17T18:22:14.032Z,95981.73
2023-01-17T18:24:41.937Z,95974.61
2023-01-17T18:27:10.726Z,95969.16
2023-01-17T18:29:39.108Z,95969.77
2023-01-17T18:32:07.175Z,95961.14
2023-01-17T18:34:35.815Z,95964.94
2023-01-17T18:37:03.833Z,95959.95
2023-01-17T18:39:31.807Z,95956.65
2023-01-17T18:41:59.797Z,95946.59
2023-01-17T18:44:27.954Z,95932.40
2023-01-17T18:46:58.257Z,95924.14
2023-01-17T18:49:26.438Z,95920.70
2023-01-17T18:51:54.345Z,95911.95
2023-01-17T18:54:22.366Z,95908.53
2023-01-17T18:56:51.219Z,95904.70
2023-01-17T18:59:19.750Z,95902.23
2023-01-17T19:01:48.179Z,95894.64
2023-01-17T19:04:17.420Z,95893.66
2023-01-17T19:06:46.965Z,95889.16
2023-01-17T19:09:15.918Z,95884.64
2023-01-17T19:11:45.205Z,95890.60
2023-01-17T19:14:13.279Z,95885.90
2023-01-17T19:16:41.910Z,95881.96
2023-01-17T19:19:11.676Z,95881.02
2023-01-17T19:21:39.975Z,95880.29
2023-01-17T19:24:08.191Z,95873.54
2023-01-17T19:26:36.136Z,95864.40
2023-01-17T19:29:05.339Z,95860.50
2023-01-17T19:31:37.200Z,95855.08
2023-01-17T19:34:05.360Z,95852.38
2023-01-17T19:36:34.503Z,95853.30
2023-01-17T19:39:05.878Z,95851.23
2023-01-17T19:41:35.610Z,95846.94
2023-01-17T19:44:05.334Z,95850.98
2023-01-17T19:46:33.512Z,95851.77
2023-01-17T19:49:01.933Z,95854.13
2023-01-17T19:51:30.213Z,95852.36
2023-01-17T19:54:01.963Z,95856.23
2023-01-17T19:56:30.456Z,95848.61
2023-01-17T19:59:01.654Z,95852.30
2023-01-17T20:01:31.916Z,95842.02
2023-01-17T20:04:01.119Z,95833.98
2023-01-17T20:06:30.924Z,95831.11
2023-01-17T20:08:59.514Z,95830.14
2023-01-17T20:11:28.239Z,95836.80
2023-01-17T20:13:57.335Z,95835.40
2023-01-17T20:16:26.209Z,95831.36
2023-01-17T20:18:54.318Z,95832.41
2023-01-17T20:21:23.333Z,95832.00
2023-01-17T20:23:52.122Z,95820.17
2023-01-17T20:26:21.846Z,95821.23
2023-01-17T20:28:51.569Z,95819.80
2023-01-17T20:31:21.197Z,95818.63
2023-01-17T20:33:50.503Z,95812.23
2023-01-17T20:36:20.050Z,95814.02
2023-01-17T20:38:48.775Z,95805.09
2023-01-17T20:41:16.911Z,95804.09
2023-01-17T20:43:46.111Z,95807.80
2023-01-17T20:46:14.652Z,95807.52
2023-01-17T20:48:52.709Z,95805.16
2023-01-17T20:51:21.381Z,95796.52
2023-01-17T20:53:53.498Z,95793.63
2023-01-17T20:56:21.889Z,95786.60
2023-01-17T20:58:52.409Z,95781.14
2023-01-17T21:01:21.451Z,95779.73
2023-01-17T21:03:51.741Z,95777.77
2023-01-17T21:06:20.962Z,95767.50
2023-01-17T21:08:49.479Z,95757.86
2023-01-17T21:11:19.460Z,95740.66
2023-01-17T21:13:48.894Z,95744.34
2023-01-17T21:16:17.970Z,95748.56
2023-01-17T21:18:47.786Z,95753.43
2023-01-17T21:21:21.948Z,95741.91
2023-01-17T21:23:50.866Z,95743.91
2023-01-17T21:26:20.582Z,95732.95
2023-01-17T21:28:49.479Z,95738.98
2023-01-17T21:31:23.054Z,95733.92
2023-01-17T21:33:53.086Z,95728.64
2023-01-17T21:36:21.866Z,95731.12
2023-01-17T21:38:52.609Z,95723.59
2023-01-17T21:41:22.005Z,95718.73
2023-01-17T21:43:54.690Z,95712.95
2023-01-17T21:46:23.203Z,95707.21
2023-01-17T21:48:51.260Z,95708.03
2023-01-17T21:51:22.620Z,95711.70
2023-01-17T21:53:50.653Z,95717.70
2023-01-17T21:56:37.423Z,95710.88
2023-01-17T21:59:05.629Z,95695.94
2023-01-17T22:01:33.684Z,95692.98
2023-01-17T22:04:03.041Z,95695.25
2023-01-17T22:06:32.632Z,95695.63
2023-01-17T22:09:00.559Z,95691.14
2023-01-17T22:11:30.543Z,95694.30
2023-01-17T22:13:59.509Z,95693.73
2023-01-17T22:16:27.764Z,95684.21
2023-01-17T22:18:55.830Z,95669.89
2023-01-17T22:21:25.194Z,95672.36
2023-01-17T22:23:54.398Z,95674.27
2023-01-17T22:26:23.732Z,95685.31
2023-01-17T22:28:52.571Z,95693.61
2023-01-17T22:31:22.987Z,95687.97
2023-01-17T22:33:58.551Z,95690.38
2023-01-17T22:36:26.906Z,95685.86
2023-01-17T22:38:55.752Z,95697.55
2023-01-17T22:41:25.468Z,95694.90
2023-01-17T22:43:55.604Z,95685.86
2023-01-17T22:46:26.378Z,95678.14
2023-01-17T22:48:55.406Z,95675.02
2023-01-17T22:51:24.878Z,95681.52
2023-01-17T22:53:54.688Z,95687.41
2023-01-17T22:56:24.075Z,95682.45
2023-01-17T22:58:52.964Z,95679.23
2023-01-17T23:01:22.367Z,95679.81
2023-01-17T23:03:52.385Z,95688.45
2023-01-17T23:06:25.680Z,95687.48
2023-01-17T23:08:55.024Z,95688.98
2023-01-17T23:11:41.961Z,95686.02
2023-01-17T23:14:09.886Z,95686.42
2023-01-17T23:16:57.500Z,95684.64
2023-01-17T23:19:27.443Z,95687.98
2023-01-17T23:22:15.784Z,95688.42
2023-01-17T23:24:45.521Z,95683.77
2023-01-17T23:27:34.469Z,95682.37
2023-01-17T23:30:04.690Z,95674.89
2023-01-17T23:32:33.156Z,95672.06
2023-01-17T23:35:01.361Z,95674.85
2023-01-17T23:37:50.399Z,95676.95
2023-01-17T23:40:18.628Z,95677.24
2023-01-17T23:43:05.397Z,95682.91
2023-01-17T23:45:37.057Z,95682.39
2023-01-17T23:48:09.644Z,95683.64
2023-01-17T23:50:39.319Z,95673.34
2023-01-17T23:53:08.654Z,95666.27
2023-01-17T23:55:38.863Z,95653.16
2023-01-17T23:58:07.953Z,95653.66
